createdAt,value
2018-02-24T00:00:20.572Z,0.00
2018-02-24T00:00:59.855Z,0.00
2018-02-24T00:01:35.296Z,0.00
2018-02-24T00:02:13.494Z,0.00
2018-02-24T00:02:49.330Z,0.00
2018-02-24T00:03:24.654Z,0.00
2018-02-24T00:04:02.763Z,0.00
2018-02-24T00:04:39.170Z,0.00
2018-02-24T00:05:14.386Z,0.00
2018-02-24T00:05:51.604Z,0.00
2018-02-24T00:06:26.802Z,0.00
2018-02-24T00:07:02.463Z,0.00
2018-02-24T00:07:37.666Z,0.00
2018-02-24T00:08:12.733Z,0.00
2018-02-24T00:08:52.053Z,0.00
2018-02-24T00:09:27.510Z,0.00
2018-02-24T00:10:02.821Z,0.00
2018-02-24T00:10:39.033Z,0.00
2018-02-24T00:11:14.401Z,0.00
2018-02-24T00:11:49.837Z,0.00
2018-02-24T00:12:25.369Z,0.00
2018-02-24T00:13:00.766Z,0.00
2018-02-24T00:13:36.671Z,0.00
2018-02-24T00:14:11.892Z,0.00
2018-02-24T00:14:50.826Z,0.00
2018-02-24T00:15:26.169Z,0.00
2018-02-24T00:16:01.470Z,0.00
2018-02-24T00:16:38.075Z,0.00
2018-02-24T00:17:13.070Z,0.00
2018-02-24T00:17:48.312Z,0.00
2018-02-24T00:18:23.609Z,0.00
2018-02-24T00:18:58.992Z,0.00
2018-02-24T00:19:34.329Z,0.00
2018-02-24T00:20:09.813Z,0.00
2018-02-24T00:20:47.317Z,0.00
2018-02-24T00:21:22.739Z,0.00
2018-02-24T00:21:58.034Z,0.00
2018-02-24T00:22:34.829Z,0.00
2018-02-24T00:23:12.720Z,0.00
2018-02-24T00:23:48.016Z,0.00
2018-02-24T00:24:24.790Z,0.00
2018-02-24T00:27:01.192Z,0.00
2018-02-24T00:27:36.589Z,0.00
2018-02-24T00:28:14.171Z,0.00
2018-02-24T00:28:53.093Z,0.00
2018-02-24T00:29:28.343Z,0.00
2018-02-24T00:30:03.721Z,0.00
2018-02-24T00:30:40.529Z,0.00
2018-02-24T00:31:18.297Z,0.00
2018-02-24T00:31:56.314Z,0.00
2018-02-24T00:32:31.749Z,0.00
2018-02-24T00:33:07.148Z,0.00
2018-02-24T00:33:42.777Z,0.00
2018-02-24T00:34:19.032Z,0.00
2018-02-24T00:34:57.095Z,0.00
2018-02-24T00:35:32.411Z,0.00
2018-02-24T00:36:07.594Z,0.00
2018-02-24T00:36:42.893Z,0.00
2018-02-24T00:37:20.683Z,0.00
2018-02-24T00:37:56.397Z,0.00
2018-02-24T00:38:33.192Z,0.00
2018-02-24T00:39:08.289Z,0.00
2018-02-24T00:39:44.628Z,0.00
2018-02-24T00:40:20.525Z,0.00
2018-02-24T00:40:58.696Z,0.00
2018-02-24T00:41:33.903Z,0.00
2018-02-24T00:42:09.174Z,0.00
2018-02-24T00:42:44.981Z,0.00
2018-02-24T00:43:20.503Z,0.00
2018-02-24T00:43:55.815Z,0.00
2018-02-24T00:44:31.185Z,0.00
2018-02-24T00:45:06.372Z,0.00
2018-02-24T00:45:43.498Z,0.00
2018-02-24T00:46:18.845Z,0.00
2018-02-24T00:46:54.405Z,0.00
2018-02-24T00:47:29.501Z,0.00
2018-02-24T00:48:11.634Z,0.00
2018-02-24T00:48:47.165Z,0.00
2018-02-24T00:49:24.374Z,0.00
2018-02-24T00:49:59.497Z,0.00
2018-02-24T00:50:35.013Z,0.00
2018-02-24T00:51:10.205Z,0.00
2018-02-24T00:51:46.047Z,0.00
2018-02-24T00:52:21.676Z,0.00
2018-02-24T00:52:59.346Z,0.00
2018-02-24T00:53:34.647Z,0.00
2018-02-24T00:54:09.856Z,0.00
2018-02-24T00:54:45.178Z,0.00
2018-02-24T00:55:20.496Z,0.00
2018-02-24T00:55:59.104Z,0.00
2018-02-24T00:56:34.904Z,0.00
2018-02-24T00:57:13.734Z,0.00
2018-02-24T00:57:48.901Z,0.00
2018-02-24T00:58:23.907Z,0.00
2018-02-24T00:58:59.523Z,0.00
2018-02-24T00:59:34.966Z,0.00
2018-02-24T01:00:10.256Z,0.00
2018-02-24T01:00:47.362Z,0.00
2018-02-24T01:01:25.721Z,0.00
2018-02-24T01:02:01.224Z,0.00
2018-02-24T01:02:41.140Z,0.00
2018-02-24T01:03:16.548Z,0.00
2018-02-24T01:03:52.050Z,0.00
2018-02-24T01:04:27.785Z,0.00
2018-02-24T01:05:03.824Z,0.00
2018-02-24T01:05:40.442Z,0.00
2018-02-24T01:06:15.832Z,0.00
2018-02-24T01:06:53.456Z,0.00
2018-02-24T01:07:29.060Z,0.00
2018-02-24T01:08:07.761Z,0.00
2018-02-24T01:08:43.172Z,0.00
2018-02-24T01:09:18.752Z,0.00
2018-02-24T01:09:53.772Z,0.00
2018-02-24T01:10:29.412Z,0.00
2018-02-24T01:11:04.695Z,0.00
2018-02-24T01:11:41.597Z,0.00
2018-02-24T01:12:17.098Z,0.00
2018-02-24T01:12:52.511Z,0.00
2018-02-24T01:13:28.235Z,0.00
2018-02-24T01:14:03.633Z,0.00
2018-02-24T01:14:41.050Z,0.00
2018-02-24T01:15:16.384Z,0.00
2018-02-24T01:15:51.620Z,0.00
2018-02-24T01:16:27.044Z,0.00
2018-02-24T01:17:03.826Z,0.00
2018-02-24T01:17:40.837Z,0.00
2018-02-24T01:18:16.338Z,0.00
2018-02-24T01:18:51.538Z,0.00
2018-02-24T01:19:26.863Z,0.00
2018-02-24T01:20:02.175Z,0.00
2018-02-24T01:20:40.029Z,0.00
2018-02-24T01:21:15.508Z,0.00
2018-02-24T01:21:53.463Z,0.00
2018-02-24T01:22:28.793Z,0.00
2018-02-24T01:23:04.293Z,0.00
2018-02-24T01:23:40.543Z,0.00
2018-02-24T01:24:15.732Z,0.00
2018-02-24T01:24:50.891Z,0.00
2018-02-24T01:25:26.203Z,0.00
2018-02-24T01:26:01.705Z,0.00
2018-02-24T01:26:40.149Z,0.00
2018-02-24T01:27:15.448Z,0.00
2018-02-24T01:27:51.649Z,0.00
2018-02-24T01:28:27.268Z,0.00
2018-02-24T01:29:02.662Z,0.00
2018-02-24T01:29:38.187Z,0.00
2018-02-24T01:30:13.413Z,0.00
2018-02-24T01:30:51.929Z,0.00
2018-02-24T01:31:27.243Z,0.00
2018-02-24T01:32:02.940Z,0.00
2018-02-24T01:32:38.272Z,0.00
2018-02-24T01:33:13.917Z,0.00
2018-02-24T01:33:49.697Z,0.00
2018-02-24T01:34:24.926Z,0.00
2018-02-24T01:35:01.731Z,0.00
2018-02-24T01:35:39.036Z,0.00
2018-02-24T01:36:15.835Z,0.00
2018-02-24T01:36:52.235Z,0.00
2018-02-24T01:37:27.640Z,0.00
2018-02-24T01:38:02.927Z,0.00
2018-02-24T01:38:38.847Z,0.00
2018-02-24T01:39:14.077Z,0.00
2018-02-24T01:39:50.775Z,0.00
2018-02-24T01:40:26.019Z,0.00
2018-02-24T01:41:04.392Z,0.00
2018-02-24T01:41:40.496Z,0.00
2018-02-24T01:42:15.981Z,0.00
2018-02-24T01:42:53.406Z,0.00
2018-02-24T01:43:28.631Z,0.00
2018-02-24T01:44:05.969Z,0.00
2018-02-24T01:44:41.479Z,0.00
2018-02-24T01:45:18.034Z,0.00
2018-02-24T01:46:00.547Z,0.00
2018-02-24T01:46:36.186Z,0.00
2018-02-24T01:47:11.759Z,0.00
2018-02-24T01:47:47.389Z,0.00
2018-02-24T01:48:22.523Z,0.00
2018-02-24T01:48:57.921Z,0.00
2018-02-24T01:49:33.351Z,0.00
2018-02-24T01:50:08.490Z,0.00
2018-02-24T01:50:45.686Z,0.00
2018-02-24T01:51:20.804Z,0.00
2018-02-24T01:51:56.076Z,0.00
2018-02-24T01:52:31.394Z,0.00
2018-02-24T01:53:06.581Z,0.00
2018-02-24T01:53:42.015Z,0.00
2018-02-24T01:54:17.493Z,0.00
2018-02-24T01:54:53.126Z,0.00
2018-02-24T01:55:28.459Z,0.00
2018-02-24T01:56:03.828Z,0.00
2018-02-24T01:56:39.747Z,0.00
2018-02-24T01:57:15.136Z,0.00
2018-02-24T01:57:50.261Z,0.00
2018-02-24T01:58:25.689Z,0.00
2018-02-24T01:59:01.601Z,0.00
2018-02-24T01:59:36.817Z,0.00
2018-02-24T02:00:15.618Z,0.00
2018-02-24T02:00:58.197Z,0.00
2018-02-24T02:01:33.599Z,0.00
2018-02-24T02:02:10.817Z,0.00
2018-02-24T02:02:46.132Z,0.00
2018-02-24T02:03:21.347Z,0.00
2018-02-24T02:03:56.839Z,0.00
2018-02-24T02:04:32.202Z,0.00
2018-02-24T02:05:07.649Z,0.00
2018-02-24T02:05:43.076Z,0.00
2018-02-24T02:06:20.619Z,0.00
2018-02-24T02:06:56.023Z,0.00
2018-02-24T02:07:31.542Z,0.00
2018-02-24T02:08:06.859Z,0.00
2018-02-24T02:08:43.855Z,0.00
2018-02-24T02:09:19.402Z,0.00
2018-02-24T02:09:54.907Z,0.00
2018-02-24T02:10:30.523Z,0.00
2018-02-24T02:11:05.917Z,0.00
2018-02-24T02:11:41.376Z,0.00
2018-02-24T02:12:16.890Z,0.00
2018-02-24T02:12:52.431Z,0.00
2018-02-24T02:13:28.047Z,0.00
2018-02-24T02:14:03.388Z,0.00
2018-02-24T02:14:39.095Z,0.00
2018-02-24T02:15:14.388Z,0.00
2018-02-24T02:15:49.962Z,0.00
2018-02-24T02:16:25.424Z,0.00
2018-02-24T02:17:00.950Z,0.00
2018-02-24T02:17:36.370Z,0.00
2018-02-24T02:18:11.696Z,0.00
2018-02-24T02:18:49.204Z,0.00
2018-02-24T02:19:24.876Z,0.00
2018-02-24T02:20:01.783Z,0.00
2018-02-24T02:20:40.405Z,0.00
2018-02-24T02:21:18.523Z,0.00
2018-02-24T02:21:53.840Z,0.00
2018-02-24T02:22:29.533Z,0.00
2018-02-24T02:23:04.941Z,0.00
2018-02-24T02:23:40.170Z,0.00
2018-02-24T02:24:15.580Z,0.00
2018-02-24T02:24:50.821Z,0.00
2018-02-24T02:25:26.195Z,0.00
2018-02-24T02:26:03.503Z,0.00
2018-02-24T02:26:40.139Z,0.00
2018-02-24T02:27:15.724Z,0.00
2018-02-24T02:27:52.482Z,0.00
2018-02-24T02:28:27.996Z,0.00
2018-02-24T02:29:03.487Z,0.00
2018-02-24T02:29:39.406Z,0.00
2018-02-24T02:30:14.827Z,0.00
2018-02-24T02:30:50.975Z,0.00
2018-02-24T02:31:26.667Z,0.00
2018-02-24T02:32:01.672Z,0.00
2018-02-24T02:32:36.816Z,0.00
2018-02-24T02:33:12.644Z,0.00
2018-02-24T02:33:49.640Z,0.00
2018-02-24T02:34:25.071Z,0.00
2018-02-24T02:35:02.479Z,0.00
2018-02-24T02:35:38.031Z,0.00
2018-02-24T02:36:17.064Z,0.00
2018-02-24T02:36:58.797Z,0.00
2018-02-24T02:37:34.416Z,0.00
2018-02-24T02:38:09.740Z,0.00
2018-02-24T02:38:45.236Z,0.00
2018-02-24T02:39:20.462Z,0.00
2018-02-24T02:39:55.851Z,0.00
2018-02-24T02:40:31.188Z,0.00
2018-02-24T02:41:10.178Z,0.00
2018-02-24T02:41:47.017Z,0.00
2018-02-24T02:42:22.144Z,0.00
2018-02-24T02:42:57.447Z,0.00
2018-02-24T02:43:33.493Z,0.00
2018-02-24T02:44:08.928Z,0.00
2018-02-24T02:44:44.281Z,0.00
2018-02-24T02:45:21.511Z,0.00
2018-02-24T02:45:56.849Z,0.00
2018-02-24T02:46:31.905Z,0.00
2018-02-24T02:47:08.906Z,0.00
2018-02-24T02:47:44.561Z,0.00
2018-02-24T02:48:19.801Z,0.00
2018-02-24T02:48:55.031Z,0.00
2018-02-24T02:49:30.665Z,0.00
2018-02-24T02:50:05.991Z,0.00
2018-02-24T02:50:44.317Z,0.00
2018-02-24T02:51:19.782Z,0.00
2018-02-24T02:51:55.904Z,0.00
2018-02-24T02:52:31.669Z,0.00
2018-02-24T02:53:08.078Z,0.00
2018-02-24T02:53:44.935Z,0.00
2018-02-24T02:54:21.093Z,0.00
2018-02-24T02:54:57.912Z,0.00
2018-02-24T02:55:33.743Z,0.00
2018-02-24T02:56:11.957Z,0.00
2018-02-24T02:56:47.060Z,0.00
2018-02-24T02:57:22.302Z,0.00
2018-02-24T02:57:57.695Z,0.00
2018-02-24T02:58:32.873Z,0.00
2018-02-24T02:59:08.464Z,0.00
2018-02-24T02:59:45.805Z,0.00
2018-02-24T03:00:21.079Z,0.00
2018-02-24T03:00:58.316Z,0.00
2018-02-24T03:01:33.732Z,0.00
2018-02-24T03:02:09.135Z,0.00
2018-02-24T03:02:45.906Z,0.00
2018-02-24T03:03:21.436Z,0.00
2018-02-24T03:03:56.658Z,0.00
2018-02-24T03:04:32.013Z,0.00
2018-02-24T03:05:07.412Z,0.00
2018-02-24T03:05:46.183Z,0.00
2018-02-24T03:06:21.886Z,0.00
2018-02-24T03:06:57.446Z,0.00
2018-02-24T03:07:32.958Z,0.00
2018-02-24T03:08:08.787Z,0.00
2018-02-24T03:08:44.317Z,0.00
2018-02-24T03:09:19.946Z,0.00
2018-02-24T03:09:55.330Z,0.00
2018-02-24T03:10:30.540Z,0.00
2018-02-24T03:11:07.930Z,0.00
2018-02-24T03:11:43.544Z,0.00
2018-02-24T03:12:19.022Z,0.00
2018-02-24T03:12:54.304Z,0.00
2018-02-24T03:13:29.877Z,0.00
2018-02-24T03:14:05.811Z,0.00
2018-02-24T03:14:41.337Z,0.00
2018-02-24T03:15:16.869Z,0.00
2018-02-24T03:15:53.020Z,0.00
2018-02-24T03:16:28.511Z,0.00
2018-02-24T03:17:03.958Z,0.00
2018-02-24T03:17:40.321Z,0.00
2018-02-24T03:18:15.922Z,0.00
2018-02-24T03:18:53.351Z,0.00
2018-02-24T03:19:29.186Z,0.00
2018-02-24T03:20:04.697Z,0.00
2018-02-24T03:20:42.236Z,0.00
2018-02-24T03:21:18.665Z,0.00
2018-02-24T03:21:55.646Z,0.00
2018-02-24T03:22:31.106Z,0.00
2018-02-24T03:23:06.756Z,0.00
2018-02-24T03:23:42.795Z,0.00
2018-02-24T03:24:18.200Z,0.00
2018-02-24T03:24:53.932Z,0.00
2018-02-24T03:25:29.955Z,0.00
2018-02-24T03:26:05.579Z,0.00
2018-02-24T03:26:40.848Z,0.00
2018-02-24T03:27:16.293Z,0.00
2018-02-24T03:27:51.429Z,0.00
2018-02-24T03:28:26.875Z,0.00
2018-02-24T03:29:02.200Z,0.00
2018-02-24T03:29:37.643Z,0.00
2018-02-24T03:30:12.741Z,0.00
2018-02-24T03:30:51.866Z,0.00
2018-02-24T03:31:27.643Z,0.00
2018-02-24T03:32:05.127Z,0.00
2018-02-24T03:32:41.297Z,0.00
2018-02-24T03:33:16.806Z,0.00
2018-02-24T03:33:52.245Z,0.00
2018-02-24T03:34:27.789Z,0.00
2018-02-24T03:35:04.328Z,0.00
2018-02-24T03:35:41.174Z,0.00
2018-02-24T03:36:16.586Z,0.00
2018-02-24T03:36:54.052Z,0.00
2018-02-24T03:37:29.309Z,0.00
2018-02-24T03:38:04.742Z,0.00
2018-02-24T03:38:40.898Z,0.00
2018-02-24T03:39:17.016Z,0.00
2018-02-24T03:39:54.990Z,0.00
2018-02-24T03:40:30.218Z,0.00
2018-02-24T03:41:05.413Z,0.00
2018-02-24T03:41:41.066Z,0.00
2018-02-24T03:42:16.259Z,0.00
2018-02-24T03:42:51.815Z,0.00
2018-02-24T03:43:29.283Z,0.00
2018-02-24T03:44:04.918Z,0.00
2018-02-24T03:44:43.650Z,0.00
2018-02-24T03:45:18.875Z,0.00
2018-02-24T03:45:57.396Z,0.00
2018-02-24T03:46:33.955Z,0.00
2018-02-24T03:47:09.057Z,0.00
2018-02-24T03:47:44.722Z,0.00
2018-02-24T03:48:20.170Z,0.00
2018-02-24T03:48:56.623Z,0.00
2018-02-24T03:49:31.795Z,0.00
2018-02-24T03:50:07.246Z,0.00
2018-02-24T03:50:46.002Z,0.00
2018-02-24T03:51:23.048Z,0.00
2018-02-24T03:51:58.350Z,0.00
2018-02-24T03:52:33.814Z,0.00
2018-02-24T03:53:09.620Z,0.00
2018-02-24T03:53:51.373Z,0.00
2018-02-24T03:54:26.632Z,0.00
2018-02-24T03:55:01.736Z,0.00
2018-02-24T03:55:37.402Z,0.00
2018-02-24T03:56:13.252Z,0.00
2018-02-24T03:56:52.488Z,0.00
2018-02-24T03:57:27.716Z,0.00
2018-02-24T03:58:03.013Z,0.00
2018-02-24T03:58:38.447Z,0.00
2018-02-24T03:59:13.845Z,0.00
2018-02-24T03:59:49.618Z,0.00
2018-02-24T04:00:24.928Z,0.00
2018-02-24T04:01:03.863Z,0.00
2018-02-24T04:01:39.296Z,0.00
2018-02-24T04:02:15.947Z,0.00
2018-02-24T04:02:53.575Z,0.00
2018-02-24T04:03:29.086Z,0.00
2018-02-24T04:04:04.521Z,0.00
2018-02-24T04:04:39.859Z,0.00
2018-02-24T04:05:15.203Z,0.00
2018-02-24T04:05:50.733Z,0.00
2018-02-24T04:06:26.419Z,0.00
2018-02-24T04:07:01.747Z,0.00
2018-02-24T04:07:38.767Z,0.00
2018-02-24T04:08:14.382Z,0.00
2018-02-24T04:08:50.244Z,0.00
2018-02-24T04:09:25.865Z,0.00
2018-02-24T04:10:01.387Z,0.00
2018-02-24T04:10:37.430Z,0.00
2018-02-24T04:11:12.934Z,0.00
2018-02-24T04:11:48.406Z,0.00
2018-02-24T04:12:24.057Z,0.00
2018-02-24T04:13:01.261Z,0.00
2018-02-24T04:13:37.304Z,0.00
2018-02-24T04:14:12.608Z,0.00
2018-02-24T04:14:49.146Z,0.00
2018-02-24T04:15:24.600Z,0.00
2018-02-24T04:16:00.116Z,0.00
2018-02-24T04:16:35.564Z,0.00
2018-02-24T04:17:12.109Z,0.00
2018-02-24T04:17:48.549Z,0.00
2018-02-24T04:18:24.433Z,0.00
2018-02-24T04:18:59.526Z,0.00
2018-02-24T04:19:35.514Z,0.00
2018-02-24T04:20:11.615Z,0.00
2018-02-24T04:20:51.004Z,0.00
2018-02-24T04:21:27.432Z,0.00
2018-02-24T04:22:05.778Z,0.00
2018-02-24T04:22:43.202Z,0.00
2018-02-24T04:23:18.487Z,0.00
2018-02-24T04:23:54.523Z,0.00
2018-02-24T04:24:29.846Z,0.00
2018-02-24T04:25:05.652Z,0.00
2018-02-24T04:25:41.590Z,0.00
2018-02-24T04:26:17.044Z,0.00
2018-02-24T04:26:52.589Z,0.00
2018-02-24T04:27:30.067Z,0.00
2018-02-24T04:28:05.388Z,0.00
2018-02-24T04:28:44.041Z,0.00
2018-02-24T04:29:19.265Z,0.00
2018-02-24T04:29:55.802Z,0.00
2018-02-24T04:30:31.340Z,0.00
2018-02-24T04:31:14.338Z,0.00
2018-02-24T04:31:54.034Z,0.00
2018-02-24T04:32:29.555Z,0.00
2018-02-24T04:33:05.043Z,0.00
2018-02-24T04:33:40.798Z,0.00
2018-02-24T04:34:16.607Z,0.00
2018-02-24T04:34:53.427Z,0.00
2018-02-24T04:35:29.202Z,0.00
2018-02-24T04:36:05.092Z,0.00
2018-02-24T04:36:40.557Z,0.00
2018-02-24T04:37:15.902Z,0.00
2018-02-24T04:37:51.138Z,0.00
2018-02-24T04:38:27.267Z,0.00
2018-02-24T04:39:02.511Z,0.00
2018-02-24T04:39:38.276Z,0.00
2018-02-24T04:40:13.478Z,0.00
2018-02-24T04:40:52.013Z,0.00
2018-02-24T04:41:27.442Z,0.00
2018-02-24T04:42:02.456Z,0.00
2018-02-24T04:42:38.304Z,0.00
2018-02-24T04:43:13.806Z,0.00
2018-02-24T04:43:49.263Z,0.00
2018-02-24T04:44:24.589Z,0.00
2018-02-24T04:44:59.943Z,0.00
2018-02-24T04:45:35.389Z,0.00
2018-02-24T04:46:10.814Z,0.00
2018-02-24T04:46:48.276Z,0.00
2018-02-24T04:47:24.320Z,0.00
2018-02-24T04:48:02.374Z,0.00
2018-02-24T04:48:40.194Z,0.00
2018-02-24T04:49:15.846Z,0.00
2018-02-24T04:49:51.776Z,0.00
2018-02-24T04:50:27.109Z,0.00
2018-02-24T04:51:04.524Z,0.00
2018-02-24T04:51:40.146Z,0.00
2018-02-24T04:52:15.777Z,0.00
2018-02-24T04:52:53.025Z,0.00
2018-02-24T04:53:28.507Z,0.00
2018-02-24T04:54:04.190Z,0.00
2018-02-24T04:54:42.678Z,0.00
2018-02-24T04:55:17.868Z,0.00
2018-02-24T04:55:55.723Z,0.00
2018-02-24T04:56:30.941Z,0.00
2018-02-24T04:57:06.087Z,0.00
2018-02-24T04:57:41.226Z,0.00
2018-02-24T04:58:16.747Z,0.00
2018-02-24T04:58:52.092Z,0.00
2018-02-24T04:59:27.927Z,0.00
2018-02-24T05:00:03.665Z,0.00
2018-02-24T05:00:40.792Z,0.00
2018-02-24T05:01:15.912Z,0.00
2018-02-24T05:01:53.030Z,0.00
2018-02-24T05:02:28.768Z,0.00
2018-02-24T05:03:05.069Z,0.00
2018-02-24T05:03:40.413Z,0.00
2018-02-24T05:04:15.761Z,0.00
2018-02-24T05:04:51.104Z,0.00
2018-02-24T05:05:26.667Z,0.00
2018-02-24T05:06:03.116Z,0.00
2018-02-24T05:06:40.135Z,0.00
2018-02-24T05:07:16.138Z,0.00
2018-02-24T05:07:53.781Z,0.00
2018-02-24T05:08:29.399Z,0.00
2018-02-24T05:09:04.917Z,0.00
2018-02-24T05:09:40.204Z,0.00
2018-02-24T05:10:15.774Z,0.00
2018-02-24T05:10:51.439Z,0.00
2018-02-24T05:11:29.159Z,0.00
2018-02-24T05:12:04.596Z,0.00
2018-02-24T05:12:44.078Z,0.00
2018-02-24T05:13:21.928Z,0.00
2018-02-24T05:13:57.326Z,0.00
2018-02-24T05:14:32.781Z,0.00
2018-02-24T05:15:08.065Z,0.00
2018-02-24T05:15:45.099Z,0.00
2018-02-24T05:16:20.244Z,0.00
2018-02-24T05:17:01.087Z,0.00
2018-02-24T05:17:36.726Z,0.00
2018-02-24T05:18:13.012Z,0.00
2018-02-24T05:18:48.883Z,0.00
2018-02-24T05:19:24.343Z,0.00
2018-02-24T05:20:00.429Z,0.00
2018-02-24T05:20:36.122Z,0.00
2018-02-24T05:21:13.113Z,0.00
2018-02-24T05:21:49.358Z,0.00
2018-02-24T05:22:24.730Z,0.00
2018-02-24T05:23:01.136Z,0.00
2018-02-24T05:23:36.471Z,0.00
2018-02-24T05:24:11.808Z,0.00
2018-02-24T05:24:47.453Z,0.00
2018-02-24T05:25:25.916Z,0.00
2018-02-24T05:26:06.668Z,0.00
2018-02-24T05:26:43.503Z,0.00
2018-02-24T05:27:19.060Z,0.00
2018-02-24T05:27:54.110Z,0.00
2018-02-24T05:28:30.855Z,0.00
2018-02-24T05:29:06.060Z,0.00
2018-02-24T05:29:42.058Z,0.00
2018-02-24T05:30:17.471Z,0.00
2018-02-24T05:30:58.625Z,0.00
2018-02-24T05:31:37.498Z,0.00
2018-02-24T05:32:16.530Z,0.00
2018-02-24T05:32:55.907Z,0.00
2018-02-24T05:33:33.030Z,0.00
2018-02-24T05:34:10.463Z,0.00
2018-02-24T05:34:46.202Z,0.00
2018-02-24T05:35:21.843Z,0.00
2018-02-24T05:35:57.842Z,0.00
2018-02-24T05:36:33.308Z,0.00
2018-02-24T05:37:08.740Z,0.00
2018-02-24T05:37:45.852Z,0.00
2018-02-24T05:38:21.131Z,0.00
2018-02-24T05:38:56.869Z,0.00
2018-02-24T05:39:32.541Z,0.00
2018-02-24T05:40:08.108Z,0.00
2018-02-24T05:40:44.177Z,0.00
2018-02-24T05:41:19.512Z,0.00
2018-02-24T05:41:57.938Z,0.00
2018-02-24T05:42:34.381Z,0.00
2018-02-24T05:43:10.007Z,0.00
2018-02-24T05:43:47.081Z,0.00
2018-02-24T05:44:25.340Z,0.00
2018-02-24T05:45:00.854Z,0.00
2018-02-24T05:45:42.027Z,0.00
2018-02-24T05:46:21.056Z,0.00
2018-02-24T05:46:56.418Z,0.00
2018-02-24T05:47:32.010Z,0.00
2018-02-24T05:48:07.034Z,0.00
2018-02-24T05:48:42.692Z,0.00
2018-02-24T05:49:17.893Z,0.00
2018-02-24T05:49:53.249Z,0.00
2018-02-24T05:50:29.246Z,0.00
2018-02-24T05:51:04.778Z,0.00
2018-02-24T05:51:44.392Z,0.00
2018-02-24T05:52:21.217Z,0.00
2018-02-24T05:52:57.407Z,0.00
2018-02-24T05:53:32.738Z,0.00
2018-02-24T05:54:09.701Z,0.00
2018-02-24T05:54:45.328Z,0.00
2018-02-24T05:55:20.802Z,0.00
2018-02-24T05:55:59.616Z,0.00
2018-02-24T05:56:35.053Z,0.00
2018-02-24T05:57:10.493Z,0.00
2018-02-24T05:57:49.097Z,0.00
2018-02-24T05:58:26.323Z,0.00
2018-02-24T05:59:01.863Z,0.00
2018-02-24T05:59:38.779Z,0.00
2018-02-24T06:00:13.892Z,0.00
2018-02-24T06:00:54.407Z,0.00
2018-02-24T06:01:32.304Z,0.00
2018-02-24T06:02:09.210Z,0.00
2018-02-24T06:02:44.667Z,0.00
2018-02-24T06:03:20.113Z,0.00
2018-02-24T06:03:55.732Z,0.00
2018-02-24T06:04:31.202Z,0.00
2018-02-24T06:05:07.244Z,0.00
2018-02-24T06:05:43.977Z,0.00
2018-02-24T06:06:18.977Z,0.00
2018-02-24T06:06:54.424Z,0.00
2018-02-24T06:07:30.046Z,0.00
2018-02-24T06:08:05.284Z,0.00
2018-02-24T06:08:40.735Z,0.00
2018-02-24T06:09:16.296Z,0.00
2018-02-24T06:09:51.619Z,0.00
2018-02-24T06:10:27.077Z,0.00
2018-02-24T06:11:05.118Z,0.00
2018-02-24T06:11:40.635Z,0.00
2018-02-24T06:12:15.957Z,0.00
2018-02-24T06:12:51.537Z,0.00
2018-02-24T06:13:26.890Z,0.00
2018-02-24T06:14:02.454Z,0.00
2018-02-24T06:14:38.385Z,0.00
2018-02-24T06:15:13.515Z,0.00
2018-02-24T06:15:52.512Z,0.00
2018-02-24T06:16:27.706Z,0.00
2018-02-24T06:17:03.155Z,0.00
2018-02-24T06:17:38.613Z,0.00
2018-02-24T06:18:13.937Z,0.00
2018-02-24T06:18:52.099Z,0.00
2018-02-24T06:19:28.742Z,0.00
2018-02-24T06:20:04.157Z,0.00
2018-02-24T06:20:42.178Z,0.00
2018-02-24T06:21:17.651Z,5.00
2018-02-24T06:21:52.715Z,5.00
2018-02-24T06:22:28.199Z,5.00
2018-02-24T06:23:06.245Z,5.00
2018-02-24T06:23:44.292Z,5.00
2018-02-24T06:24:19.619Z,5.00
2018-02-24T06:24:55.142Z,5.00
2018-02-24T06:25:30.643Z,5.00
2018-02-24T06:26:06.166Z,5.00
2018-02-24T06:26:42.217Z,5.00
2018-02-24T06:27:17.329Z,5.00
2018-02-24T06:27:59.856Z,5.00
2018-02-24T06:28:37.406Z,5.00
2018-02-24T06:29:12.722Z,5.00
2018-02-24T06:29:48.065Z,5.00
2018-02-24T06:30:23.717Z,5.00
2018-02-24T06:31:04.641Z,11.00
2018-02-24T06:31:40.160Z,11.00
2018-02-24T06:32:17.501Z,11.00
2018-02-24T06:32:53.164Z,11.00
2018-02-24T06:33:28.505Z,11.00
2018-02-24T06:34:03.729Z,11.00
2018-02-24T06:34:45.362Z,11.00
2018-02-24T06:35:20.413Z,11.00
2018-02-24T06:35:55.505Z,16.00
2018-02-24T06:36:31.095Z,16.00
2018-02-24T06:37:06.498Z,16.00
2018-02-24T06:37:42.155Z,16.00
2018-02-24T06:38:17.436Z,16.00
2018-02-24T06:38:53.262Z,16.00
2018-02-24T06:39:28.620Z,16.00
2018-02-24T06:40:04.016Z,16.00
2018-02-24T06:40:42.874Z,16.00
2018-02-24T06:41:21.078Z,16.00
2018-02-24T06:41:56.447Z,22.00
2018-02-24T06:42:32.095Z,22.00
2018-02-24T06:43:07.718Z,22.00
2018-02-24T06:43:43.351Z,22.00
2018-02-24T06:44:18.680Z,22.00
2018-02-24T06:44:54.049Z,22.00
2018-02-24T06:45:32.709Z,22.00
2018-02-24T06:46:09.122Z,28.00
2018-02-24T06:46:44.577Z,28.00
2018-02-24T06:47:19.949Z,28.00
2018-02-24T06:47:58.796Z,28.00
2018-02-24T06:48:37.351Z,28.00
2018-02-24T06:49:14.739Z,28.00
2018-02-24T06:49:50.188Z,28.00
2018-02-24T06:50:25.733Z,28.00
2018-02-24T06:51:03.846Z,33.00
2018-02-24T06:51:39.783Z,33.00
2018-02-24T06:52:15.315Z,33.00
2018-02-24T06:52:50.816Z,33.00
2018-02-24T06:53:26.194Z,33.00
2018-02-24T06:54:03.582Z,33.00
2018-02-24T06:54:38.916Z,33.00
2018-02-24T06:55:14.251Z,39.00
2018-02-24T06:55:55.581Z,39.00
2018-02-24T06:56:31.236Z,39.00
2018-02-24T06:57:06.584Z,39.00
2018-02-24T06:57:47.223Z,39.00
2018-02-24T06:58:24.061Z,39.00
2018-02-24T06:58:59.198Z,39.00
2018-02-24T06:59:36.432Z,39.00
2018-02-24T07:00:13.583Z,39.00
2018-02-24T07:00:52.828Z,39.00
2018-02-24T07:01:31.156Z,45.00
2018-02-24T07:02:10.776Z,45.00
2018-02-24T07:02:47.200Z,45.00
2018-02-24T07:03:25.066Z,45.00
2018-02-24T07:04:02.654Z,45.00
2018-02-24T07:04:38.777Z,50.00
2018-02-24T07:05:14.798Z,50.00
2018-02-24T07:05:56.436Z,50.00
2018-02-24T07:06:31.875Z,50.00
2018-02-24T07:07:08.889Z,56.00
2018-02-24T07:07:47.951Z,56.00
2018-02-24T07:08:24.382Z,56.00
2018-02-24T07:08:59.709Z,61.00
2018-02-24T07:09:34.949Z,61.00
2018-02-24T07:10:10.539Z,61.00
2018-02-24T07:10:47.679Z,61.00
2018-02-24T07:11:26.795Z,61.00
2018-02-24T07:12:06.246Z,67.00
2018-02-24T07:12:42.693Z,67.00
2018-02-24T07:13:21.451Z,67.00
2018-02-24T07:14:00.692Z,67.00
2018-02-24T07:14:39.317Z,67.00
2018-02-24T07:15:14.658Z,67.00
2018-02-24T07:15:49.903Z,61.00
2018-02-24T07:16:28.726Z,61.00
2018-02-24T07:17:06.030Z,67.00
2018-02-24T07:17:41.516Z,73.00
2018-02-24T07:18:20.041Z,78.00
2018-02-24T07:19:00.272Z,78.00
2018-02-24T07:19:35.833Z,78.00
2018-02-24T07:20:14.667Z,78.00
2018-02-24T07:20:54.189Z,84.00
2018-02-24T07:21:29.543Z,90.00
2018-02-24T07:22:09.097Z,90.00
2018-02-24T07:22:46.980Z,90.00
2018-02-24T07:23:22.428Z,95.00
2018-02-24T07:24:00.035Z,101.00
2018-02-24T07:24:35.684Z,101.00
2018-02-24T07:25:14.042Z,106.00
2018-02-24T07:25:51.305Z,106.00
2018-02-24T07:26:26.679Z,112.00
2018-02-24T07:27:02.065Z,112.00
2018-02-24T07:27:42.295Z,118.00
2018-02-24T07:28:17.500Z,118.00
2018-02-24T07:28:52.918Z,123.00
2018-02-24T07:29:31.480Z,118.00
2018-02-24T07:30:09.592Z,112.00
2018-02-24T07:30:49.263Z,101.00
2018-02-24T07:31:24.700Z,95.00
2018-02-24T07:32:00.298Z,95.00
2018-02-24T07:32:36.331Z,90.00
2018-02-24T07:33:14.329Z,95.00
2018-02-24T07:33:53.770Z,101.00
2018-02-24T07:34:28.359Z,118.00
2018-02-24T07:35:03.791Z,135.00
2018-02-24T07:35:42.712Z,146.00
2018-02-24T07:36:18.394Z,135.00
2018-02-24T07:36:59.290Z,129.00
2018-02-24T07:37:35.125Z,118.00
2018-02-24T07:38:10.342Z,118.00
2018-02-24T07:38:46.257Z,118.00
2018-02-24T07:39:21.693Z,129.00
2018-02-24T07:39:57.213Z,140.00
2018-02-24T07:40:32.751Z,146.00
2018-02-24T07:41:08.100Z,151.00
2018-02-24T07:41:47.469Z,151.00
2018-02-24T07:42:22.922Z,157.00
2018-02-24T07:43:02.546Z,157.00
2018-02-24T07:43:41.000Z,163.00
2018-02-24T07:44:16.334Z,168.00
2018-02-24T07:44:55.163Z,168.00
2018-02-24T07:45:31.789Z,174.00
2018-02-24T07:46:07.103Z,174.00
2018-02-24T07:46:42.620Z,180.00
2018-02-24T07:47:21.038Z,180.00
2018-02-24T07:47:56.310Z,185.00
2018-02-24T07:48:35.094Z,180.00
2018-02-24T07:49:10.539Z,185.00
2018-02-24T07:49:48.059Z,185.00
2018-02-24T07:50:24.028Z,185.00
2018-02-24T07:50:59.634Z,191.00
2018-02-24T07:51:37.878Z,191.00
2018-02-24T07:52:13.294Z,191.00
2018-02-24T07:52:48.541Z,191.00
2018-02-24T07:53:23.908Z,185.00
2018-02-24T07:53:59.395Z,191.00
2018-02-24T07:54:34.876Z,185.00
2018-02-24T07:55:10.194Z,180.00
2018-02-24T07:55:47.124Z,180.00
2018-02-24T07:56:22.353Z,180.00
2018-02-24T07:57:00.880Z,185.00
2018-02-24T07:57:36.570Z,202.00
2018-02-24T07:58:12.196Z,213.00
2018-02-24T07:58:47.436Z,219.00
2018-02-24T07:59:23.484Z,225.00
2018-02-24T07:59:59.610Z,230.00
2018-02-24T08:00:35.849Z,230.00